Time;durP1;ratioP1;P1;durP2;ratioP2;P2;SDS_P1;SDS_P2;PMS_P1;PMS_P2;Temp;Humidity;BMP_temperature;BMP_pressure;BME280_temperature;BME280_humidity;BME280_pressure;Samples;Min_cycle;Max_cycle;Signal;HPM_P1;HPM_P2
2021/05/16 00:00:28;;;;;;;2.58;1.00;;;11.10;94.10;;;;;;5027151;28;20496;-85
2021/05/16 00:02:57;;;;;;;2.83;1.00;;;11.20;92.60;;;;;;5012278;28;20420;-85
2021/05/16 00:05:26;;;;;;;2.95;0.90;;;11.30;93.40;;;;;;5031211;28;20394;-82
2021/05/16 00:07:53;;;;;;;2.53;0.90;;;11.30;93.90;;;;;;5021679;28;20957;-84
2021/05/16 00:10:22;;;;;;;2.70;0.90;;;11.50;93.70;;;;;;5022154;28;20386;-83
2021/05/16 00:12:49;;;;;;;3.05;1.00;;;11.50;93.70;;;;;;5024049;28;20406;-82
2021/05/16 00:15:19;;;;;;;2.78;0.73;;;11.70;92.50;;;;;;4997331;28;20389;-85
2021/05/16 00:17:46;;;;;;;3.60;0.95;;;11.90;93.30;;;;;;5028593;28;20393;-84
2021/05/16 00:20:20;;;;;;;3.08;0.68;;;12.10;93.00;;;;;;5005854;28;20395;-83
2021/05/16 00:22:48;;;;;;;2.15;0.80;;;12.60;92.10;;;;;;5028144;28;20405;-85
2021/05/16 00:25:18;;;;;;;2.72;0.85;;;12.70;92.20;;;;;;5019772;28;20418;-84
2021/05/16 00:27:46;;;;;;;2.88;0.88;;;12.50;92.10;;;;;;5023970;28;20444;-84
2021/05/16 00:30:18;;;;;;;2.20;0.70;;;12.40;92.70;;;;;;5028752;28;21148;-83
2021/05/16 00:32:46;;;;;;;3.13;0.80;;;12.30;93.60;;;;;;5011237;28;20386;-84
2021/05/16 00:35:17;;;;;;;4.32;0.85;;;12.20;94.20;;;;;;5022368;28;20770;-89
2021/05/16 00:37:44;;;;;;;3.60;0.70;;;12.10;93.30;;;;;;5019901;28;20403;-89
2021/05/16 00:40:12;;;;;;;3.42;0.50;;;12.20;93.40;;;;;;5002262;28;20417;-89
2021/05/16 00:42:39;;;;;;;3.67;0.68;;;12.20;93.50;;;;;;5031374;28;20449;-83
2021/05/16 00:45:10;;;;;;;2.42;0.57;;;12.20;93.70;;;;;;5027849;28;20406;-89
2021/05/16 00:47:38;;;;;;;3.90;0.60;;;12.30;93.10;;;;;;5006618;28;20393;-90
2021/05/16 00:50:10;;;;;;;2.90;0.60;;;12.60;93.60;;;;;;5022447;28;20470;-84
2021/05/16 00:52:40;;;;;;;2.22;0.60;;;12.80;92.70;;;;;;5016335;28;20416;-85
2021/05/16 00:55:09;;;;;;;2.58;0.60;;;12.90;93.00;;;;;;5023011;28;20464;-86
2021/05/16 00:57:36;;;;;;;5.10;0.60;;;12.90;92.50;;;;;;5000910;28;20416;-83
2021/05/16 01:00:09;;;;;;;5.70;0.80;;;12.90;91.80;;;;;;5009741;28;20397;-83
2021/05/16 01:02:36;;;;;;;2.40;0.50;;;12.80;93.10;;;;;;5004588;28;20389;-85
2021/05/16 01:05:04;;;;;;;3.83;0.80;;;12.90;92.20;;;;;;5028041;28;20401;-86
2021/05/16 01:07:33;;;;;;;1.85;0.60;;;12.80;92.10;;;;;;5005608;28;20469;-82
2021/05/16 01:10:02;;;;;;;5.20;0.77;;;12.80;92.10;;;;;;4993032;28;20410;-85
2021/05/16 01:12:33;;;;;;;3.53;0.70;;;12.90;91.80;;;;;;5010983;28;20379;-83
2021/05/16 01:15:03;;;;;;;1.90;0.65;;;13.00;92.10;;;;;;5010601;28;20404;-82
2021/05/16 01:17:30;;;;;;;1.67;0.57;;;12.90;91.10;;;;;;5011313;28;20879;-83
2021/05/16 01:19:57;;;;;;;2.05;0.70;;;13.00;91.50;;;;;;5009135;28;20473;-83
2021/05/16 01:22:24;;;;;;;2.08;0.65;;;12.90;91.60;;;;;;5029994;28;20428;-82
2021/05/16 01:24:51;;;;;;;1.77;0.50;;;13.00;91.80;;;;;;5012371;28;20479;-84
2021/05/16 01:27:20;;;;;;;3.47;0.70;;;13.10;92.00;;;;;;5027584;28;20862;-84
2021/05/16 01:29:47;;;;;;;1.33;0.50;;;13.10;90.90;;;;;;5018273;28;20461;-85
2021/05/16 01:32:14;;;;;;;4.40;0.60;;;13.10;91.50;;;;;;5011345;28;20397;-84
2021/05/16 01:34:42;;;;;;;2.35;0.40;;;13.20;90.80;;;;;;5011791;28;20734;-86
2021/05/16 01:37:11;;;;;;;3.20;0.53;;;13.20;91.50;;;;;;5029704;28;20862;-84
2021/05/16 01:39:40;;;;;;;0.90;0.50;;;13.30;91.50;;;;;;5029684;28;20373;-82
2021/05/16 01:42:09;;;;;;;2.92;0.93;;;13.30;91.70;;;;;;4997101;28;20395;-84
2021/05/16 01:44:36;;;;;;;2.33;0.75;;;13.40;92.00;;;;;;5009831;28;20852;-83
2021/05/16 01:47:03;;;;;;;2.67;0.70;;;13.50;92.00;;;;;;5009468;28;20395;-84
2021/05/16 01:49:42;;;;;;;3.85;0.60;;;13.40;91.70;;;;;;5009615;28;20418;-83
2021/05/16 01:52:11;;;;;;;3.13;0.77;;;13.50;91.80;;;;;;4991899;28;20780;-85
2021/05/16 01:54:38;;;;;;;1.83;0.60;;;13.60;91.50;;;;;;5015513;28;20452;-84
2021/05/16 01:57:07;;;;;;;6.13;0.98;;;13.70;92.20;;;;;;5009380;28;20386;-84
2021/05/16 01:59:36;;;;;;;4.95;0.77;;;13.70;91.40;;;;;;5009228;28;20433;-84
2021/05/16 02:02:04;;;;;;;1.70;0.60;;;13.70;91.50;;;;;;5017290;28;20416;-83
2021/05/16 02:04:33;;;;;;;2.25;0.70;;;13.90;92.20;;;;;;5018451;28;20405;-83
2021/05/16 02:07:00;;;;;;;3.33;0.90;;;13.90;91.40;;;;;;5009299;28;20442;-83
2021/05/16 02:09:28;;;;;;;2.77;0.70;;;14.00;91.80;;;;;;5009483;28;20381;-83
2021/05/16 02:11:56;;;;;;;3.40;0.68;;;13.90;91.20;;;;;;4991662;28;20510;-82
2021/05/16 02:14:27;;;;;;;3.28;0.73;;;14.00;90.70;;;;;;5016297;28;20748;-84
2021/05/16 02:16:55;;;;;;;2.58;0.90;;;14.20;91.30;;;;;;5028985;28;20452;-84
2021/05/16 02:19:22;;;;;;;2.28;0.80;;;14.20;90.40;;;;;;5018436;28;20410;-83
2021/05/16 02:21:50;;;;;;;4.43;0.90;;;14.30;90.90;;;;;;5009357;28;20430;-83
2021/05/16 02:24:17;;;;;;;3.70;0.90;;;14.30;91.10;;;;;;5012271;28;20378;-85
2021/05/16 02:26:45;;;;;;;4.43;1.00;;;14.30;91.50;;;;;;5028091;28;20478;-85
2021/05/16 02:29:14;;;;;;;2.85;0.95;;;14.40;91.00;;;;;;5011153;28;20390;-85
2021/05/16 02:31:42;;;;;;;3.97;1.00;;;14.60;90.80;;;;;;5028762;28;20389;-85
2021/05/16 02:34:09;;;;;;;3.80;0.70;;;14.70;90.90;;;;;;5027097;28;20378;-84
2021/05/16 02:36:36;;;;;;;6.20;0.93;;;14.60;91.20;;;;;;5024892;28;20748;-84
2021/05/16 02:39:05;;;;;;;3.58;0.70;;;14.50;91.70;;;;;;4996988;28;20386;-85
2021/05/16 02:41:32;;;;;;;4.07;0.95;;;14.50;90.70;;;;;;5011618;28;20902;-85
2021/05/16 02:43:59;;;;;;;2.20;0.70;;;14.60;89.30;;;;;;5021618;28;20407;-84
2021/05/16 02:46:26;;;;;;;1.25;0.50;;;14.60;90.50;;;;;;5026794;28;20460;-85
2021/05/16 02:48:53;;;;;;;5.82;1.23;;;14.60;88.70;;;;;;5032401;28;20388;-83
2021/05/16 02:51:20;;;;;;;3.78;0.93;;;14.60;90.40;;;;;;5014992;28;20825;-85
2021/05/16 02:53:48;;;;;;;2.95;0.77;;;14.70;88.50;;;;;;5011388;28;20389;-83
2021/05/16 02:56:16;;;;;;;2.38;0.60;;;14.60;87.60;;;;;;5026788;28;20472;-83
2021/05/16 02:58:44;;;;;;;2.75;0.60;;;14.50;86.30;;;;;;5016911;28;20400;-83
2021/05/16 03:01:11;;;;;;;3.50;0.55;;;14.60;85.40;;;;;;5012492;28;20916;-85
2021/05/16 03:03:40;;;;;;;3.05;0.73;;;14.60;85.80;;;;;;5015049;28;20396;-84
2021/05/16 03:06:07;;;;;;;2.20;0.50;;;14.60;86.80;;;;;;5023395;28;20414;-83
2021/05/16 03:12:03;;;;;;;2.72;0.98;;;14.70;86.30;;;;;;4982541;28;21003;-84
2021/05/16 03:14:42;;;;;;;3.33;0.82;;;14.80;86.30;;;;;;5003033;28;21301;-84
2021/05/16 03:17:13;;;;;;;1.67;0.63;;;14.90;86.40;;;;;;5010014;28;20433;-85
2021/05/16 03:19:40;;;;;;;2.83;0.90;;;14.90;84.90;;;;;;5019944;28;20472;-83
2021/05/16 03:22:09;;;;;;;5.60;0.80;;;14.90;84.50;;;;;;5027795;28;20397;-85
2021/05/16 03:24:38;;;;;;;2.17;0.60;;;14.90;85.50;;;;;;5014523;28;20947;-83
2021/05/16 03:27:05;;;;;;;4.43;0.70;;;15.10;85.00;;;;;;5022458;28;20416;-84
2021/05/16 03:29:33;;;;;;;2.53;0.80;;;15.10;82.80;;;;;;5028752;28;20492;-83
2021/05/16 03:32:00;;;;;;;2.10;0.60;;;15.00;82.60;;;;;;5022618;28;20416;-83
2021/05/16 03:34:27;;;;;;;2.90;0.70;;;15.00;82.50;;;;;;5030327;28;20377;-82
2021/05/16 03:36:55;;;;;;;2.25;0.70;;;15.10;81.50;;;;;;5016710;28;20460;-85
2021/05/16 03:39:22;;;;;;;2.15;1.88;;;15.10;83.90;;;;;;5012269;28;20405;-83
2021/05/16 03:41:55;;;;;;;2.10;0.85;;;15.20;82.20;;;;;;5014016;28;20496;-84
2021/05/16 03:44:25;;;;;;;4.13;0.70;;;15.30;81.10;;;;;;5027208;28;20387;-84
2021/05/16 03:46:52;;;;;;;2.60;0.50;;;15.30;80.10;;;;;;5018810;28;20500;-83
2021/05/16 03:49:20;;;;;;;1.50;0.70;;;15.30;81.00;;;;;;5023775;28;20389;-84
2021/05/16 03:51:48;;;;;;;1.05;0.60;;;15.30;77.30;;;;;;5019202;28;20414;-83
2021/05/16 03:54:15;;;;;;;2.25;0.70;;;15.20;77.60;;;;;;5026220;28;21142;-84
2021/05/16 03:56:43;;;;;;;4.18;0.80;;;15.20;79.90;;;;;;5026634;28;20394;-83
2021/05/16 03:59:10;;;;;;;1.60;0.57;;;15.20;80.40;;;;;;5027235;28;20416;-82
2021/05/16 04:01:37;;;;;;;4.10;0.60;;;15.20;79.00;;;;;;5022704;28;20834;-82
2021/05/16 04:04:05;;;;;;;0.80;0.50;;;15.30;80.70;;;;;;5024214;28;20393;-81
2021/05/16 04:06:32;;;;;;;1.50;0.40;;;15.20;79.00;;;;;;5016134;28;20409;-85
2021/05/16 04:08:59;;;;;;;2.15;0.47;;;15.20;76.20;;;;;;5016657;28;20465;-81
2021/05/16 04:11:26;;;;;;;2.92;0.38;;;15.20;76.20;;;;;;5028746;28;20432;-83
2021/05/16 04:13:53;;;;;;;0.80;0.38;;;15.10;75.40;;;;;;5025596;28;20822;-84
2021/05/16 04:16:20;;;;;;;2.83;0.53;;;15.10;73.90;;;;;;5020758;28;20407;-88
2021/05/16 04:18:47;;;;;;;1.17;0.40;;;15.10;74.20;;;;;;5025098;28;20482;-87
2021/05/16 04:21:14;;;;;;;0.98;0.52;;;15.20;74.30;;;;;;5015848;28;20394;-86
2021/05/16 04:23:41;;;;;;;0.80;0.38;;;15.20;74.30;;;;;;5002117;28;20382;-86
2021/05/16 04:26:08;;;;;;;2.53;0.50;;;15.20;75.80;;;;;;5020102;28;20424;-84
2021/05/16 04:28:35;;;;;;;1.98;0.70;;;15.10;76.10;;;;;;5003775;28;20441;-86
2021/05/16 04:31:02;;;;;;;3.95;0.43;;;15.10;75.40;;;;;;5017712;28;20398;-87
2021/05/16 04:33:29;;;;;;;1.05;0.50;;;15.10;74.60;;;;;;5022437;28;20422;-85
2021/05/16 04:35:58;;;;;;;0.55;0.45;;;15.10;74.70;;;;;;5004949;28;20416;-86
2021/05/16 04:38:25;;;;;;;1.87;0.40;;;15.10;73.40;;;;;;5026949;28;20399;-85
2021/05/16 04:40:52;;;;;;;1.65;0.40;;;15.20;73.30;;;;;;5010953;28;20393;-86
2021/05/16 04:43:19;;;;;;;1.02;0.60;;;15.10;73.60;;;;;;5024136;28;20383;-86
2021/05/16 04:45:46;;;;;;;1.73;0.60;;;15.10;74.60;;;;;;5025142;28;20919;-84
2021/05/16 04:48:13;;;;;;;1.25;0.45;;;15.10;75.20;;;;;;4991416;28;20401;-87
2021/05/16 04:50:40;;;;;;;1.98;0.55;;;15.20;73.90;;;;;;5020214;28;20477;-85
2021/05/16 04:53:07;;;;;;;1.57;0.40;;;15.10;74.20;;;;;;5028678;28;20431;-84
2021/05/16 04:55:34;;;;;;;1.40;0.40;;;15.00;72.60;;;;;;5027955;28;20904;-86
2021/05/16 04:58:01;;;;;;;1.95;0.45;;;15.00;73.80;;;;;;5028263;28;20383;-83
2021/05/16 05:00:29;;;;;;;1.50;0.70;;;14.90;71.80;;;;;;5028074;28;20399;-86
2021/05/16 05:02:58;;;;;;;1.10;0.50;;;14.80;72.70;;;;;;5029552;28;20476;-83
2021/05/16 05:05:25;;;;;;;1.87;0.50;;;14.80;70.60;;;;;;5025325;28;20917;-82
2021/05/16 05:07:52;;;;;;;0.98;0.50;;;14.80;71.20;;;;;;5019955;28;20759;-84
2021/05/16 05:10:19;;;;;;;1.40;0.40;;;14.80;73.20;;;;;;5024787;28;20419;-84
2021/05/16 05:12:46;;;;;;;0.90;0.80;;;14.80;73.00;;;;;;5023600;28;20432;-84
2021/05/16 05:15:13;;;;;;;2.50;0.73;;;14.70;72.30;;;;;;5023420;28;20401;-83
2021/05/16 05:17:41;;;;;;;1.23;0.50;;;14.70;72.20;;;;;;5027408;28;20472;-85
2021/05/16 05:20:11;;;;;;;1.52;0.80;;;14.70;71.20;;;;;;5012937;28;20766;-82
2021/05/16 05:22:39;;;;;;;2.00;0.60;;;14.70;71.60;;;;;;5020141;28;20481;-85
2021/05/16 05:25:09;;;;;;;3.72;0.77;;;14.60;73.50;;;;;;5025941;28;20821;-85
2021/05/16 05:27:36;;;;;;;2.45;0.77;;;14.60;73.40;;;;;;4994917;28;20439;-84
2021/05/16 05:30:05;;;;;;;2.45;0.60;;;14.60;70.10;;;;;;5013384;28;20878;-83
2021/05/16 05:32:32;;;;;;;0.88;0.60;;;14.50;71.60;;;;;;5010190;28;20486;-82
2021/05/16 05:34:59;;;;;;;0.63;0.60;;;14.50;72.80;;;;;;5028623;28;20393;-83
2021/05/16 05:37:26;;;;;;;1.25;0.68;;;14.50;73.70;;;;;;5022341;28;20375;-82
2021/05/16 05:39:53;;;;;;;1.00;0.30;;;14.40;73.30;;;;;;5029055;28;20395;-83
2021/05/16 05:42:20;;;;;;;2.90;0.50;;;14.40;72.00;;;;;;5020808;28;20401;-82
2021/05/16 05:44:47;;;;;;;0.85;0.55;;;14.40;72.00;;;;;;5018426;28;20741;-83
2021/05/16 05:47:15;;;;;;;0.50;0.50;;;14.40;71.00;;;;;;5025849;28;20401;-83
2021/05/16 05:49:42;;;;;;;2.60;0.60;;;14.30;71.20;;;;;;5026522;28;20386;-83
2021/05/16 05:52:09;;;;;;;0.98;0.60;;;14.30;72.10;;;;;;5001457;28;20404;-83
2021/05/16 05:54:38;;;;;;;2.42;0.52;;;14.30;73.20;;;;;;5006885;28;20460;-84
2021/05/16 05:57:06;;;;;;;2.30;0.60;;;14.30;72.80;;;;;;5003906;28;20400;-84
2021/05/16 05:59:33;;;;;;;1.30;0.52;;;14.20;73.80;;;;;;5018828;28;20817;-84
2021/05/16 06:02:02;;;;;;;4.40;0.60;;;14.20;73.50;;;;;;5016042;28;20720;-83
2021/05/16 06:04:29;;;;;;;0.53;0.40;;;14.10;74.60;;;;;;5020212;28;20388;-84
2021/05/16 06:06:57;;;;;;;1.08;0.50;;;14.10;74.80;;;;;;5011829;28;20977;-83
2021/05/16 06:09:24;;;;;;;1.08;0.47;;;14.00;75.30;;;;;;5002083;28;20872;-82
2021/05/16 06:11:51;;;;;;;0.65;0.35;;;14.00;77.20;;;;;;5009863;28;20882;-84
2021/05/16 06:14:18;;;;;;;2.78;0.70;;;13.90;79.10;;;;;;5019726;28;20405;-83
2021/05/16 06:16:45;;;;;;;1.48;0.70;;;13.80;79.70;;;;;;5013999;28;20405;-83
2021/05/16 06:19:12;;;;;;;0.85;0.50;;;13.70;79.20;;;;;;5017800;28;20787;-83
2021/05/16 06:21:39;;;;;;;1.77;0.60;;;13.60;80.10;;;;;;5015769;28;20458;-84
2021/05/16 06:24:09;;;;;;;2.78;0.70;;;13.60;82.00;;;;;;5025383;28;20416;-83
2021/05/16 06:26:38;;;;;;;2.83;0.55;;;13.60;80.30;;;;;;5024659;28;20499;-83
2021/05/16 06:29:05;;;;;;;1.10;0.60;;;13.50;80.00;;;;;;5020613;28;20387;-82
2021/05/16 06:31:33;;;;;;;2.50;0.70;;;13.50;81.20;;;;;;5019139;28;20890;-83
2021/05/16 06:34:00;;;;;;;1.50;0.50;;;13.40;82.10;;;;;;5017704;28;20393;-85
2021/05/16 06:36:28;;;;;;;2.97;1.30;;;13.30;84.00;;;;;;5011728;28;20455;-83
2021/05/16 06:38:55;;;;;;;2.70;1.00;;;13.20;85.20;;;;;;5028439;28;20451;-85
2021/05/16 06:41:23;;;;;;;2.17;0.85;;;13.10;86.60;;;;;;5019128;28;20404;-84
2021/05/16 06:43:51;;;;;;;2.93;1.20;;;13.00;87.10;;;;;;5018909;28;20387;-86
2021/05/16 06:46:19;;;;;;;1.90;0.80;;;12.80;86.80;;;;;;5025582;28;20413;-88
2021/05/16 06:48:46;;;;;;;2.00;1.10;;;12.70;88.70;;;;;;5023016;28;20398;-85
2021/05/16 06:51:14;;;;;;;1.40;0.95;;;12.70;90.30;;;;;;5011918;28;20430;-85
2021/05/16 06:53:41;;;;;;;1.40;0.90;;;12.50;90.30;;;;;;5015471;28;20408;-85
2021/05/16 06:56:11;;;;;;;3.53;1.30;;;12.40;90.70;;;;;;5017579;28;20431;-84
2021/05/16 06:58:39;;;;;;;3.03;1.23;;;12.30;90.20;;;;;;5006126;28;20551;-83
2021/05/16 07:01:06;;;;;;;2.42;1.60;;;12.30;91.20;;;;;;4998607;28;20457;-84
2021/05/16 07:03:35;;;;;;;3.95;2.60;;;12.20;91.20;;;;;;5012134;28;20397;-85
2021/05/16 07:06:02;;;;;;;4.72;2.45;;;12.10;90.60;;;;;;5003259;28;20489;-85
2021/05/16 07:08:29;;;;;;;8.15;4.93;;;12.00;92.10;;;;;;5023242;28;20385;-85
2021/05/16 07:10:56;;;;;;;9.65;7.13;;;11.90;92.00;;;;;;5027404;28;20387;-80
2021/05/16 07:13:23;;;;;;;6.10;4.60;;;11.90;92.80;;;;;;5004935;28;20382;-84
2021/05/16 07:15:50;;;;;;;6.40;3.40;;;11.80;93.20;;;;;;5014289;28;20385;-84
2021/05/16 07:18:17;;;;;;;3.07;2.50;;;11.70;92.80;;;;;;5022857;28;20455;-86
2021/05/16 07:20:44;;;;;;;3.30;2.33;;;11.70;93.50;;;;;;5012591;28;20432;-85
2021/05/16 07:23:12;;;;;;;4.47;2.70;;;11.60;93.90;;;;;;5020317;28;20393;-86
2021/05/16 07:25:39;;;;;;;2.75;2.10;;;11.60;94.00;;;;;;5014712;28;20418;-85
2021/05/16 07:28:06;;;;;;;3.20;1.95;;;11.50;93.60;;;;;;5006714;28;20935;-84
2021/05/16 07:30:34;;;;;;;2.65;1.90;;;11.60;92.40;;;;;;5006334;28;20759;-85
2021/05/16 07:33:02;;;;;;;3.22;2.10;;;11.60;91.90;;;;;;5010231;28;20443;-85
2021/05/16 07:35:29;;;;;;;4.57;1.85;;;11.70;92.30;;;;;;5025027;28;20465;-84
2021/05/16 07:37:56;;;;;;;3.72;2.15;;;11.60;91.80;;;;;;5024476;28;20405;-84
2021/05/16 07:40:23;;;;;;;4.27;2.10;;;11.60;92.60;;;;;;5022286;28;20396;-84
2021/05/16 07:42:50;;;;;;;2.20;1.90;;;11.60;92.60;;;;;;5001221;28;20946;-84
2021/05/16 07:45:19;;;;;;;3.67;2.10;;;11.50;93.00;;;;;;5001803;28;20401;-82
2021/05/16 07:47:46;;;;;;;4.10;2.58;;;11.50;92.90;;;;;;5014382;28;20471;-84
2021/05/16 07:50:14;;;;;;;8.85;2.97;;;11.50;93.10;;;;;;5001055;28;21178;-82
2021/05/16 07:52:42;;;;;;;3.10;2.80;;;11.40;93.50;;;;;;5021184;28;20488;-85
2021/05/16 07:55:09;;;;;;;4.80;3.38;;;11.30;93.90;;;;;;5031861;28;20935;-85
2021/05/16 07:57:37;;;;;;;11.52;8.38;;;11.20;94.40;;;;;;5011071;28;20397;-82
2021/05/16 08:00:10;;;;;;;9.50;7.28;;;11.20;94.40;;;;;;5024736;28;20381;-84
2021/05/16 08:02:37;;;;;;;14.63;12.83;;;11.10;94.20;;;;;;5030741;28;21349;-83
2021/05/16 08:05:05;;;;;;;23.67;19.98;;;11.10;93.70;;;;;;4999563;28;20411;-83
2021/05/16 08:07:32;;;;;;;16.77;13.52;;;11.00;93.40;;;;;;5020214;28;20397;-83
2021/05/16 08:09:59;;;;;;;7.20;5.20;;;11.00;93.80;;;;;;5028822;28;20381;-83
2021/05/16 08:12:26;;;;;;;5.47;3.88;;;10.90;92.30;;;;;;5023850;28;20778;-81
2021/05/16 08:14:53;;;;;;;5.78;4.10;;;11.00;92.00;;;;;;5016351;28;20381;-88
2021/05/16 08:17:20;;;;;;;5.22;3.17;;;11.00;92.10;;;;;;5012110;28;20743;-86
2021/05/16 08:19:47;;;;;;;4.10;2.10;;;10.90;91.30;;;;;;5026509;28;20404;-85
2021/05/16 08:22:19;;;;;;;2.42;2.17;;;11.00;91.00;;;;;;5033331;28;20409;-88
2021/05/16 08:24:46;;;;;;;3.58;1.63;;;11.00;90.60;;;;;;5026603;28;20459;-87
2021/05/16 08:27:22;;;;;;;3.20;2.20;;;11.10;90.40;;;;;;5032466;28;20430;-85
2021/05/16 08:29:52;;;;;;;3.10;2.37;;;11.10;89.70;;;;;;5027709;28;20376;-86
2021/05/16 08:32:19;;;;;;;2.97;2.60;;;11.20;88.40;;;;;;5012141;28;20401;-84
2021/05/16 08:34:48;;;;;;;3.97;3.08;;;11.20;89.10;;;;;;5031892;28;20437;-86
2021/05/16 08:37:28;;;;;;;4.77;3.00;;;11.20;89.10;;;;;;5017948;28;20405;-86
2021/05/16 08:39:55;;;;;;;5.63;3.27;;;11.10;89.70;;;;;;5014225;28;20452;-83
2021/05/16 08:42:31;;;;;;;3.80;2.78;;;11.00;90.30;;;;;;5013696;28;20449;-87
2021/05/16 08:44:58;;;;;;;3.97;2.60;;;11.00;90.40;;;;;;5011380;28;20405;-86
2021/05/16 08:47:25;;;;;;;2.60;2.40;;;10.90;91.20;;;;;;5029923;28;20492;-82
2021/05/16 08:49:53;;;;;;;3.65;2.60;;;10.80;91.40;;;;;;5023948;28;20441;-81
2021/05/16 08:52:19;;;;;;;3.47;2.45;;;10.70;91.00;;;;;;5013920;28;20399;-83
2021/05/16 08:54:52;;;;;;;6.10;2.40;;;10.70;91.60;;;;;;5029563;28;20405;-82
2021/05/16 08:57:22;;;;;;;3.28;2.58;;;10.60;91.20;;;;;;5017459;28;20439;-81
2021/05/16 09:00:11;;;;;;;2.83;2.53;;;10.60;91.00;;;;;;5015441;28;21846;-84
2021/05/16 09:03:08;;;;;;;4.20;3.00;;;10.60;91.20;;;;;;5017165;28;20836;-83
2021/05/16 09:05:37;;;;;;;10.10;7.90;;;10.60;91.60;;;;;;5016140;28;20414;-82
2021/05/16 09:08:10;;;;;;;10.13;8.25;;;10.40;91.30;;;;;;5020902;28;20746;-83
2021/05/16 09:10:37;;;;;;;14.33;9.80;;;10.40;91.30;;;;;;5008855;28;20427;-83
2021/05/16 09:13:09;;;;;;;9.95;7.90;;;10.30;90.90;;;;;;5026456;28;20410;-82
2021/05/16 09:15:36;;;;;;;6.97;5.80;;;10.30;92.20;;;;;;5017658;28;20393;-82
2021/05/16 09:18:03;;;;;;;6.22;3.67;;;10.20;92.90;;;;;;5018276;28;20463;-85
2021/05/16 09:20:31;;;;;;;5.83;3.43;;;10.10;92.80;;;;;;5002661;28;20403;-85
2021/05/16 09:22:58;;;;;;;3.42;2.70;;;10.10;93.40;;;;;;5022685;28;20782;-84
2021/05/16 09:25:30;;;;;;;4.22;2.60;;;10.10;93.00;;;;;;5003077;28;20423;-87
2021/05/16 09:28:14;;;;;;;3.97;2.47;;;10.00;92.50;;;;;;5022545;28;20393;-88
2021/05/16 09:30:42;;;;;;;2.85;2.28;;;10.00;92.60;;;;;;5010523;28;20473;-87
2021/05/16 09:33:09;;;;;;;5.43;2.65;;;9.90;92.60;;;;;;5034532;28;20400;-90
2021/05/16 09:35:40;;;;;;;4.78;2.22;;;9.90;93.00;;;;;;5033267;28;20411;-90
2021/05/16 09:38:09;;;;;;;3.13;2.35;;;9.80;93.30;;;;;;5016638;28;20475;-88
2021/05/16 09:40:50;;;;;;;3.90;2.40;;;9.80;93.50;;;;;;5003309;28;20895;-87
2021/05/16 09:43:17;;;;;;;4.70;2.47;;;9.70;93.40;;;;;;5012938;28;20407;-86
2021/05/16 09:45:50;;;;;;;3.15;2.35;;;9.70;93.50;;;;;;5026440;28;20439;-88
2021/05/16 09:48:39;;;;;;;3.78;2.05;;;9.70;93.90;;;;;;5026004;28;20407;-88
2021/05/16 09:51:10;;;;;;;3.65;2.33;;;9.60;93.30;;;;;;5004241;28;20377;-88
2021/05/16 09:54:12;;;;;;;3.97;2.30;;;9.60;93.30;;;;;;5015716;28;20870;-90
2021/05/16 09:56:46;;;;;;;4.85;3.10;;;9.50;93.90;;;;;;4915574;29;20418;-87
2021/05/16 09:59:14;;;;;;;3.83;2.45;;;9.50;93.80;;;;;;5007496;28;20447;-86
2021/05/16 10:01:41;;;;;;;4.72;3.05;;;9.50;94.20;;;;;;5024590;28;20903;-86
2021/05/16 10:04:09;;;;;;;3.83;2.70;;;9.40;94.40;;;;;;5013035;28;20392;-87
2021/05/16 10:06:36;;;;;;;4.28;2.85;;;9.40;94.10;;;;;;5031092;28;20409;-90
2021/05/16 10:09:04;;;;;;;4.63;2.47;;;9.40;94.50;;;;;;5028655;28;20495;-87
2021/05/16 10:11:32;;;;;;;4.88;2.83;;;9.30;93.90;;;;;;5026002;28;20506;-86
2021/05/16 10:14:21;;;;;;;3.92;3.05;;;9.30;94.40;;;;;;5028923;28;20873;-87
2021/05/16 10:16:50;;;;;;;4.10;2.72;;;9.20;94.90;;;;;;5022052;28;20408;-86
2021/05/16 10:19:23;;;;;;;4.25;3.00;;;9.10;95.60;;;;;;5027184;28;20400;-87
2021/05/16 10:22:17;;;;;;;3.90;3.10;;;9.00;95.20;;;;;;5020016;28;20435;-87
2021/05/16 10:24:54;;;;;;;3.03;2.60;;;8.90;95.20;;;;;;5007620;28;20401;-87
2021/05/16 10:27:33;;;;;;;4.15;2.42;;;8.80;95.30;;;;;;5025805;28;20405;-87
2021/05/16 10:30:06;;;;;;;3.00;2.65;;;8.80;96.00;;;;;;5027210;28;20397;-87
2021/05/16 10:32:41;;;;;;;4.72;2.50;;;8.70;95.60;;;;;;5022985;28;20430;-88
2021/05/16 10:35:09;;;;;;;4.80;2.60;;;8.70;95.30;;;;;;5017708;28;20432;-88
2021/05/16 10:37:46;;;;;;;3.72;2.78;;;8.70;96.90;;;;;;5030442;28;20380;-88
2021/05/16 10:40:13;;;;;;;5.70;3.30;;;8.60;96.20;;;;;;5013942;28;20784;-88
2021/05/16 10:42:43;;;;;;;6.47;3.47;;;8.70;95.70;;;;;;5036949;28;20437;-89
2021/05/16 10:45:34;;;;;;;5.80;3.20;;;8.70;95.60;;;;;;5027499;28;20413;-90
2021/05/16 10:48:11;;;;;;;5.38;2.83;;;8.70;95.80;;;;;;5008277;28;20417;-88
2021/05/16 10:50:57;;;;;;;4.43;2.70;;;8.70;96.30;;;;;;5015221;28;20402;-86
2021/05/16 10:53:32;;;;;;;3.03;2.20;;;8.60;96.10;;;;;;5030726;28;20403;-88
2021/05/16 10:56:09;;;;;;;2.80;2.13;;;8.60;95.90;;;;;;5030705;28;20424;-86
2021/05/16 10:58:42;;;;;;;3.90;2.43;;;8.60;96.20;;;;;;5028421;28;20428;-87
2021/05/16 11:01:11;;;;;;;5.43;2.10;;;8.70;96.00;;;;;;5025309;28;20916;-88
2021/05/16 11:03:45;;;;;;;4.55;2.10;;;8.70;95.10;;;;;;5032450;28;20394;-89
2021/05/16 11:06:13;;;;;;;2.07;1.73;;;8.70;95.30;;;;;;5028881;28;20411;-90
2021/05/16 11:08:40;;;;;;;5.65;2.13;;;8.70;95.00;;;;;;5004779;28;20730;-87
2021/05/16 11:11:45;;;;;;;4.25;1.90;;;8.60;95.20;;;;;;5028791;28;20389;-87
2021/05/16 11:14:20;;;;;;;5.10;2.15;;;8.70;95.00;;;;;;5017837;28;20462;-93
2021/05/16 11:16:57;;;;;;;5.88;3.47;;;8.70;95.10;;;;;;5016766;28;20442;-85
2021/05/16 11:19:26;;;;;;;7.32;3.63;;;8.60;95.20;;;;;;5028473;28;20413;-85
2021/05/16 11:21:54;;;;;;;8.13;3.53;;;8.60;95.40;;;;;;5035068;28;20385;-89
2021/05/16 11:24:42;;;;;;;6.55;3.25;;;8.40;95.40;;;;;;5032550;28;20389;-91
2021/05/16 11:27:18;;;;;;;4.78;2.08;;;8.30;96.80;;;;;;5022747;28;20406;-96
2021/05/16 11:29:50;;;;;;;3.70;2.10;;;8.30;96.00;;;;;;5036031;28;20365;-92
2021/05/16 11:32:22;;;;;;;3.10;2.30;;;8.30;96.40;;;;;;5033326;28;20389;-84
2021/05/16 11:35:02;;;;;;;4.90;2.10;;;8.30;96.60;;;;;;5034470;28;20368;-90
2021/05/16 11:37:31;;;;;;;3.72;1.73;;;8.20;96.70;;;;;;5015318;28;20399;-91
2021/05/16 11:40:23;;;;;;;3.08;1.70;;;8.30;96.50;;;;;;5015925;28;20386;-89
2021/05/16 11:42:58;;;;;;;3.38;1.70;;;8.30;97.20;;;;;;5027890;28;20432;-88
2021/05/16 11:45:32;;;;;;;5.13;1.55;;;8.30;97.10;;;;;;5033520;28;20451;-87
2021/05/16 11:48:00;;;;;;;4.53;1.77;;;8.20;97.10;;;;;;5029540;28;20416;-87
2021/05/16 11:50:41;;;;;;;6.22;2.97;;;8.20;97.50;;;;;;5030910;28;20883;-86
2021/05/16 11:53:08;;;;;;;4.13;2.70;;;8.10;97.60;;;;;;5018308;28;20389;-84
2021/05/16 11:55:36;;;;;;;12.10;6.72;;;8.10;97.90;;;;;;5030010;28;20419;-85
2021/05/16 11:58:04;;;;;;;23.90;10.70;;;8.00;98.40;;;;;;5028265;28;20400;-86
2021/05/16 12:00:31;;;;;;;10.55;5.25;;;7.90;98.10;;;;;;5032598;28;20381;-85
2021/05/16 12:03:12;;;;;;;11.73;4.90;;;8.00;99.40;;;;;;5033012;28;20430;-89
2021/05/16 12:05:40;;;;;;;7.95;3.95;;;8.00;99.60;;;;;;5033050;28;20413;-88
2021/05/16 12:08:18;;;;;;;7.00;2.80;;;8.00;99.90;;;;;;5032629;28;20531;-87
2021/05/16 12:10:46;;;;;;;4.32;2.47;;;7.90;99.90;;;;;;5032049;28;20389;-89
2021/05/16 12:13:24;;;;;;;4.25;2.10;;;7.90;99.90;;;;;;5010049;28;20484;-87
2021/05/16 12:15:51;;;;;;;3.95;1.95;;;7.90;99.90;;;;;;5026324;28;20496;-87
2021/05/16 12:18:21;;;;;;;3.15;1.65;;;7.80;99.90;;;;;;5033649;28;20448;-91
2021/05/16 12:20:59;;;;;;;6.57;2.13;;;7.90;99.90;;;;;;5029190;28;20387;-91
2021/05/16 12:23:26;;;;;;;4.63;1.67;;;7.80;99.90;;;;;;5015750;28;20379;-92
2021/05/16 12:25:53;;;;;;;4.80;1.90;;;7.90;99.90;;;;;;5033448;28;20415;-91
2021/05/16 12:28:21;;;;;;;4.32;1.80;;;7.90;99.90;;;;;;5033699;28;20408;-91
2021/05/16 12:30:50;;;;;;;4.22;1.50;;;7.80;99.90;;;;;;5034075;28;20936;-91
2021/05/16 12:33:18;;;;;;;3.28;1.48;;;7.80;99.90;;;;;;5034658;28;20388;-91
2021/05/16 12:35:46;;;;;;;4.50;1.52;;;7.80;99.90;;;;;;5027049;28;20426;-91
2021/05/16 12:38:17;;;;;;;3.95;2.03;;;7.80;99.90;;;;;;5016838;28;20459;-92
2021/05/16 12:40:45;;;;;;;6.72;2.15;;;7.70;99.90;;;;;;5026013;28;20472;-90
2021/05/16 12:43:18;;;;;;;5.22;2.13;;;7.70;99.90;;;;;;5019685;28;20456;-91
2021/05/16 12:45:45;;;;;;;4.82;1.90;;;7.70;99.90;;;;;;5025248;28;20451;-91
2021/05/16 12:48:19;;;;;;;4.68;1.55;;;7.60;99.90;;;;;;5006011;28;20497;-89
2021/05/16 12:50:48;;;;;;;3.90;2.03;;;7.70;99.90;;;;;;5031886;28;20395;-89
2021/05/16 12:53:42;;;;;;;6.18;1.98;;;7.60;99.90;;;;;;5010309;28;20405;-89
2021/05/16 12:56:15;;;;;;;3.30;1.65;;;7.60;99.90;;;;;;5040416;28;20365;-91
2021/05/16 12:58:59;;;;;;;6.97;2.20;;;7.50;99.90;;;;;;5042939;28;20381;-90
2021/05/16 13:01:31;;;;;;;7.30;2.05;;;7.50;99.90;;;;;;5034500;28;20402;-91
2021/05/16 13:04:04;;;;;;;4.55;1.52;;;7.40;99.90;;;;;;5041343;28;20411;-91